createdAt,value
2023-04-25T00:01:54.490Z,2.33
2023-04-25T00:04:23.421Z,2.30
2023-04-25T00:06:54.212Z,2.13
2023-04-25T00:09:22.412Z,1.73
2023-04-25T00:11:54.564Z,2.30
2023-04-25T00:14:23.917Z,1.90
2023-04-25T00:16:54.854Z,2.10
2023-04-25T00:19:23.443Z,2.30
2023-04-25T00:21:54.459Z,1.77
2023-04-25T00:24:23.735Z,2.17
2023-04-25T00:26:53.015Z,2.43
2023-04-25T00:29:25.386Z,2.37
2023-04-25T00:31:54.464Z,2.00
2023-04-25T00:34:25.362Z,1.80
2023-04-25T00:36:54.997Z,1.70
2023-04-25T00:39:23.937Z,1.60
2023-04-25T00:41:56.775Z,1.70
2023-04-25T00:44:25.535Z,1.70
2023-04-25T00:46:55.381Z,1.97
2023-04-25T00:49:23.158Z,1.80
2023-04-25T00:52:04.864Z,1.60
2023-04-25T00:54:33.884Z,1.63
2023-04-25T00:57:02.552Z,1.70
2023-04-25T00:59:33.681Z,2.03
2023-04-25T01:02:01.506Z,1.80
2023-04-25T01:04:29.960Z,1.97
2023-04-25T01:07:08.446Z,1.47
2023-04-25T01:09:36.266Z,1.80
2023-04-25T01:12:04.455Z,2.20
2023-04-25T01:14:32.394Z,2.17
2023-04-25T01:17:00.563Z,1.50
2023-04-25T01:19:29.837Z,1.77
2023-04-25T01:22:06.825Z,1.70
2023-04-25T01:24:35.876Z,1.47
2023-04-25T01:27:04.544Z,1.83
2023-04-25T01:29:39.120Z,1.70
2023-04-25T01:32:13.359Z,1.90
2023-04-25T01:34:52.199Z,1.50
2023-04-25T01:37:22.761Z,1.80
2023-04-25T01:39:51.198Z,1.50
2023-04-25T01:42:23.664Z,2.07
2023-04-25T01:44:53.888Z,1.50
2023-04-25T01:47:22.222Z,1.60
2023-04-25T01:49:52.414Z,1.40
2023-04-25T01:52:24.796Z,1.77
2023-04-25T01:54:53.337Z,1.80
2023-04-25T01:57:23.810Z,1.40
2023-04-25T01:59:54.226Z,1.90
2023-04-25T02:02:24.852Z,1.43
2023-04-25T02:04:58.079Z,1.40
2023-04-25T02:07:32.556Z,1.40
2023-04-25T02:10:03.631Z,1.83
2023-04-25T02:12:34.446Z,1.90
2023-04-25T02:15:04.388Z,1.70
2023-04-25T02:17:32.759Z,1.70
2023-04-25T02:20:04.212Z,1.63
2023-04-25T02:22:34.994Z,1.57
2023-04-25T02:25:05.744Z,2.20
2023-04-25T02:27:34.165Z,1.43
2023-04-25T02:30:01.980Z,1.40
2023-04-25T02:32:31.598Z,1.53
2023-04-25T02:35:04.855Z,1.10
2023-04-25T02:37:39.685Z,1.20
2023-04-25T02:40:13.385Z,1.40
2023-04-25T02:42:43.887Z,2.20
2023-04-25T02:45:13.723Z,1.57
2023-04-25T02:47:44.548Z,1.53
2023-04-25T02:50:12.372Z,1.77
2023-04-25T02:52:44.927Z,1.87
2023-04-25T02:55:14.838Z,1.40
2023-04-25T02:57:43.904Z,1.87
2023-04-25T03:00:15.356Z,1.63
2023-04-25T03:02:44.200Z,1.57
2023-04-25T03:05:15.376Z,1.67
2023-04-25T03:07:51.252Z,1.73
2023-04-25T03:10:22.816Z,1.50
2023-04-25T03:12:51.652Z,1.60
2023-04-25T03:15:24.699Z,1.70
2023-04-25T03:17:54.169Z,1.60
2023-04-25T03:20:25.434Z,1.10
2023-04-25T03:22:55.736Z,1.53
2023-04-25T03:25:23.836Z,1.40
2023-04-25T03:27:51.507Z,1.33
2023-04-25T03:30:34.241Z,1.27
2023-04-25T03:33:04.130Z,1.13
2023-04-25T03:35:34.012Z,1.40
2023-04-25T03:38:05.008Z,1.00
2023-04-25T03:40:34.288Z,1.20
2023-04-25T03:43:04.803Z,1.20
2023-04-25T03:45:34.168Z,1.13
2023-04-25T03:48:04.245Z,1.10
2023-04-25T03:50:32.205Z,0.90
2023-04-25T03:52:59.993Z,1.50
2023-04-25T03:55:33.925Z,1.43
2023-04-25T03:58:01.771Z,1.00
2023-04-25T04:00:33.979Z,1.20
2023-04-25T04:03:03.006Z,1.00
2023-04-25T04:05:33.688Z,1.40
2023-04-25T04:08:04.922Z,1.20
2023-04-25T04:10:34.111Z,1.10
2023-04-25T04:13:05.064Z,1.00
2023-04-25T04:15:34.841Z,1.20
2023-04-25T04:18:05.198Z,1.07
2023-04-25T04:20:34.199Z,1.23
2023-04-25T04:23:02.268Z,1.13
2023-04-25T04:25:36.489Z,1.60
2023-04-25T04:28:06.003Z,0.90
2023-04-25T04:30:37.281Z,0.97
2023-04-25T04:33:05.122Z,1.07
2023-04-25T04:35:36.406Z,1.03
2023-04-25T04:38:04.388Z,1.17
2023-04-25T04:40:34.148Z,0.97
2023-04-25T04:43:05.764Z,1.53
2023-04-25T04:45:34.459Z,1.00
2023-04-25T04:48:04.224Z,1.37
2023-04-25T04:50:34.931Z,1.80
2023-04-25T04:53:04.465Z,1.10
2023-04-25T04:55:34.385Z,1.37
2023-04-25T04:58:06.832Z,1.20
2023-04-25T05:00:35.451Z,1.10
2023-04-25T05:03:04.532Z,1.40
2023-04-25T05:05:32.426Z,1.27
2023-04-25T05:08:00.242Z,1.37
2023-04-25T05:10:30.688Z,1.30
2023-04-25T05:13:02.811Z,1.43
2023-04-25T05:15:38.231Z,0.90
2023-04-25T05:18:07.282Z,1.20
2023-04-25T05:20:35.001Z,1.40
2023-04-25T05:23:05.094Z,0.83
2023-04-25T05:25:32.840Z,1.30
2023-04-25T05:28:06.012Z,1.10
2023-04-25T05:30:36.573Z,1.20
2023-04-25T05:33:04.576Z,1.90
2023-04-25T05:35:34.366Z,1.13
2023-04-25T05:38:02.128Z,0.87
2023-04-25T05:40:35.010Z,1.20
2023-04-25T05:43:04.406Z,0.97
2023-04-25T05:45:35.777Z,1.10
2023-04-25T05:48:04.067Z,0.83
2023-04-25T05:50:34.174Z,0.90
2023-04-25T05:53:04.845Z,0.80
2023-04-25T05:55:35.885Z,0.90
2023-04-25T05:58:04.542Z,1.07
2023-04-25T06:00:32.282Z,0.73
2023-04-25T06:03:04.589Z,1.00
2023-04-25T06:05:34.271Z,0.70
2023-04-25T06:08:14.325Z,1.00
2023-04-25T06:10:44.177Z,0.90
2023-04-25T06:13:14.300Z,0.70
2023-04-25T06:15:42.167Z,0.83
2023-04-25T06:18:14.279Z,1.00
2023-04-25T06:20:44.060Z,1.00
2023-04-25T06:23:14.627Z,1.17
2023-04-25T06:25:42.441Z,0.90
2023-04-25T06:28:10.220Z,1.13
2023-04-25T06:30:42.822Z,0.80
2023-04-25T06:33:13.373Z,1.10
2023-04-25T06:35:45.881Z,0.90
2023-04-25T06:38:14.497Z,0.67
2023-04-25T06:40:44.443Z,0.70
2023-04-25T06:43:14.256Z,0.93
2023-04-25T06:45:46.942Z,0.80
2023-04-25T06:48:18.421Z,0.93
2023-04-25T06:50:46.237Z,0.90
2023-04-25T06:53:17.372Z,0.93
2023-04-25T06:55:45.133Z,0.97
2023-04-25T06:58:14.358Z,1.00
2023-04-25T07:00:44.581Z,1.17
2023-04-25T07:03:14.709Z,1.50
2023-04-25T07:05:44.748Z,0.97
2023-04-25T07:08:14.512Z,1.03
2023-04-25T07:10:44.586Z,0.90
2023-04-25T07:13:14.580Z,1.20
2023-04-25T07:15:45.706Z,1.10
2023-04-25T07:18:13.397Z,0.73
2023-04-25T07:20:58.552Z,1.00
2023-04-25T07:23:26.338Z,0.90
2023-04-25T07:25:54.936Z,0.90
2023-04-25T07:28:26.521Z,0.43
2023-04-25T07:30:54.761Z,0.70
2023-04-25T07:33:24.302Z,0.70
2023-04-25T07:35:53.828Z,0.77
2023-04-25T07:38:24.911Z,0.60
2023-04-25T07:40:53.412Z,0.67
2023-04-25T07:43:24.650Z,0.70
2023-04-25T07:45:55.077Z,0.70
2023-04-25T07:48:23.115Z,0.70
2023-04-25T07:50:54.370Z,0.73
2023-04-25T07:53:26.288Z,0.67
2023-04-25T07:55:54.807Z,0.60
2023-04-25T07:58:23.282Z,0.80
2023-04-25T08:00:54.788Z,0.70
2023-04-25T08:03:24.394Z,0.90
2023-04-25T08:05:54.636Z,0.83
2023-04-25T08:08:24.190Z,0.60
2023-04-25T08:10:55.849Z,0.40
2023-04-25T08:13:23.756Z,0.83
2023-04-25T08:15:54.620Z,0.60
2023-04-25T08:18:24.808Z,0.70
2023-04-25T08:20:54.443Z,0.53
2023-04-25T08:23:24.557Z,0.57
2023-04-25T08:25:55.010Z,0.60
2023-04-25T08:28:24.261Z,0.40
2023-04-25T08:31:04.483Z,0.60
2023-04-25T08:33:34.424Z,1.00
2023-04-25T08:36:02.163Z,0.43
2023-04-25T08:38:34.678Z,0.80
2023-04-25T08:41:10.530Z,1.00
2023-04-25T08:43:44.659Z,0.50
2023-04-25T08:46:15.280Z,0.60
2023-04-25T08:48:46.830Z,0.50
2023-04-25T08:51:25.839Z,0.67
2023-04-25T08:53:57.810Z,0.60
2023-04-25T08:56:31.142Z,0.60
2023-04-25T08:59:03.487Z,0.90
2023-04-25T09:01:35.896Z,0.50
2023-04-25T09:04:04.980Z,0.60
2023-04-25T09:06:35.812Z,0.83
2023-04-25T09:09:06.588Z,0.53
2023-04-25T09:11:38.766Z,1.00
2023-04-25T09:14:14.962Z,0.70
2023-04-25T09:17:02.679Z,0.97
2023-04-25T09:22:06.588Z,0.90
2023-04-25T09:24:38.758Z,0.77
2023-04-25T09:27:10.433Z,0.70
2023-04-25T09:29:42.158Z,0.70
2023-04-25T09:32:19.010Z,0.60
2023-04-25T09:34:50.513Z,1.00
2023-04-25T09:37:26.222Z,0.60
2023-04-25T09:39:56.285Z,0.50
2023-04-25T09:42:33.487Z,0.57
2023-04-25T09:45:04.927Z,0.77
2023-04-25T09:47:45.038Z,0.83
2023-04-25T09:50:17.205Z,0.60
2023-04-25T09:52:46.403Z,1.03
2023-04-25T09:55:15.302Z,0.60
2023-04-25T09:57:47.353Z,0.90
2023-04-25T10:00:16.149Z,0.80
2023-04-25T10:02:46.158Z,0.60
2023-04-25T10:05:15.803Z,0.90
2023-04-25T10:07:44.701Z,0.87
2023-04-25T10:10:15.587Z,0.70
2023-04-25T10:12:46.446Z,0.60
2023-04-25T10:15:17.123Z,0.90
2023-04-25T10:17:45.904Z,0.83
2023-04-25T10:20:14.108Z,0.97
2023-04-25T10:22:46.994Z,0.93
2023-04-25T10:25:16.254Z,0.53
2023-04-25T10:27:46.918Z,0.60
2023-04-25T10:30:16.988Z,0.60
2023-04-25T10:32:46.314Z,0.60
2023-04-25T10:35:17.268Z,0.90
2023-04-25T10:38:15.032Z,0.97
2023-04-25T10:40:42.878Z,0.83
2023-04-25T10:43:43.336Z,0.73
2023-04-25T10:46:37.122Z,0.80
2023-04-25T10:49:05.572Z,0.80
2023-04-25T10:51:53.894Z,1.00
2023-04-25T10:54:27.017Z,0.70
2023-04-25T10:56:55.333Z,0.40
2023-04-25T10:59:27.266Z,0.80
2023-04-25T11:01:56.195Z,1.00
2023-04-25T11:04:25.337Z,0.93
2023-04-25T11:07:14.426Z,0.70
2023-04-25T11:09:51.950Z,0.70
2023-04-25T11:12:22.725Z,0.80
2023-04-25T11:15:12.431Z,0.90
2023-04-25T11:17:47.420Z,0.90
2023-04-25T11:20:16.733Z,1.07
2023-04-25T11:22:47.095Z,0.97
2023-04-25T11:25:16.400Z,0.80
2023-04-25T11:27:54.905Z,0.70
2023-04-25T11:30:32.155Z,0.83
2023-04-25T11:33:04.979Z,0.60
2023-04-25T11:35:34.671Z,0.60
2023-04-25T11:38:05.007Z,0.70
2023-04-25T11:40:35.089Z,0.83
2023-04-25T11:43:10.359Z,1.03
2023-04-25T11:45:49.408Z,0.80
2023-04-25T11:48:23.650Z,0.70
2023-04-25T11:51:16.080Z,0.50
2023-04-25T11:53:46.574Z,0.83
2023-04-25T11:56:16.573Z,1.27
2023-04-25T11:59:03.389Z,0.80
2023-04-25T12:01:40.919Z,0.70
2023-04-25T12:04:16.941Z,0.70
2023-04-25T12:06:49.175Z,0.63
2023-04-25T12:09:24.900Z,0.60
2023-04-25T12:11:56.623Z,0.70
2023-04-25T12:14:29.097Z,0.70
2023-04-25T12:17:03.846Z,0.97
2023-04-25T12:19:36.339Z,0.73
2023-04-25T12:22:05.138Z,0.90
2023-04-25T12:24:38.679Z,0.83
2023-04-25T12:27:13.111Z,0.80
2023-04-25T12:29:49.804Z,1.00
2023-04-25T12:32:26.773Z,0.70
2023-04-25T12:34:55.552Z,0.60
2023-04-25T12:37:23.436Z,0.70
2023-04-25T12:39:54.014Z,0.70
2023-04-25T12:42:25.272Z,0.50
2023-04-25T12:44:54.056Z,0.90
2023-04-25T12:47:27.402Z,0.70
2023-04-25T12:49:55.315Z,0.90
2023-04-25T12:52:26.366Z,0.70
2023-04-25T12:54:55.352Z,0.50
2023-04-25T12:57:23.413Z,0.63
2023-04-25T12:59:55.221Z,0.40
2023-04-25T13:02:24.207Z,0.70
2023-04-25T13:04:58.907Z,0.60
2023-04-25T13:07:26.622Z,0.50
2023-04-25T13:09:55.361Z,1.00
2023-04-25T13:12:23.166Z,0.83
2023-04-25T13:14:51.094Z,0.70
2023-04-25T13:17:26.762Z,0.50
2023-04-25T13:19:56.805Z,0.80
2023-04-25T13:22:25.719Z,0.67
2023-04-25T13:24:54.028Z,0.80
2023-04-25T13:27:25.399Z,0.60
2023-04-25T13:29:54.750Z,0.80
2023-04-25T13:32:26.056Z,0.97
2023-04-25T13:35:06.042Z,0.73
2023-04-25T13:37:34.966Z,0.80
2023-04-25T13:40:06.745Z,0.60
2023-04-25T13:42:35.865Z,0.93
2023-04-25T13:45:03.873Z,0.90
2023-04-25T13:47:37.257Z,0.90
2023-04-25T13:50:15.460Z,0.80
2023-04-25T13:52:45.999Z,0.90
2023-04-25T13:55:13.819Z,0.80
2023-04-25T13:57:46.697Z,0.97
2023-04-25T14:00:16.006Z,0.60
2023-04-25T14:02:46.357Z,0.87
2023-04-25T14:05:17.389Z,0.77
2023-04-25T14:07:45.585Z,0.83
2023-04-25T14:10:15.369Z,0.80
2023-04-25T14:12:46.591Z,0.80
2023-04-25T14:15:16.123Z,1.00
2023-04-25T14:17:45.434Z,1.00
2023-04-25T14:20:16.936Z,1.30
2023-04-25T14:22:45.692Z,0.80
2023-04-25T14:25:15.649Z,0.67
2023-04-25T14:27:51.193Z,0.70
2023-04-25T14:30:25.450Z,0.70
2023-04-25T14:32:57.199Z,0.67
2023-04-25T14:35:26.369Z,0.50
2023-04-25T14:37:55.040Z,0.60
2023-04-25T14:40:24.363Z,0.80
2023-04-25T14:42:54.506Z,0.93
2023-04-25T14:45:24.820Z,0.77
2023-04-25T14:47:52.822Z,0.60
2023-04-25T14:50:26.365Z,0.90
2023-04-25T14:53:03.157Z,0.87
2023-04-25T14:55:32.101Z,0.90
2023-04-25T14:58:04.109Z,1.00
2023-04-25T15:00:36.720Z,0.83
2023-04-25T15:03:06.804Z,0.90
2023-04-25T15:05:36.025Z,1.00
2023-04-25T15:08:06.787Z,0.87
2023-04-25T15:10:34.674Z,0.90
2023-04-25T15:13:06.235Z,0.83
2023-04-25T15:15:34.400Z,1.03
2023-04-25T15:18:06.112Z,1.00
2023-04-25T15:20:35.820Z,1.53
2023-04-25T15:23:05.942Z,1.43
2023-04-25T15:25:35.877Z,0.80
2023-04-25T15:28:03.938Z,0.93
2023-04-25T15:30:36.184Z,0.87
2023-04-25T15:33:05.689Z,0.97
2023-04-25T15:35:35.896Z,0.93
2023-04-25T15:38:05.789Z,0.73
2023-04-25T15:40:36.518Z,0.63
2023-04-25T15:43:07.334Z,0.77
2023-04-25T15:45:37.648Z,0.80
2023-04-25T15:48:06.459Z,0.70
2023-04-25T15:50:36.477Z,0.77
2023-04-25T15:53:07.014Z,0.40
2023-04-25T15:55:36.931Z,0.87
2023-04-25T15:58:05.456Z,0.50
2023-04-25T16:00:37.870Z,0.97
2023-04-25T16:03:06.129Z,1.00
2023-04-25T16:05:36.135Z,0.80
2023-04-25T16:08:04.663Z,0.77
2023-04-25T16:10:37.209Z,0.87
2023-04-25T16:13:05.972Z,0.60
2023-04-25T16:15:36.323Z,0.70
2023-04-25T16:18:05.757Z,0.50
2023-04-25T16:20:35.455Z,1.00
2023-04-25T16:23:03.407Z,1.00
2023-04-25T16:25:36.473Z,0.90
2023-04-25T16:28:05.857Z,0.97
2023-04-25T16:30:34.577Z,1.33
2023-04-25T16:33:05.460Z,1.00
2023-04-25T16:35:36.593Z,0.90
2023-04-25T16:38:08.442Z,1.30
2023-04-25T16:40:37.221Z,1.10
2023-04-25T16:43:07.463Z,0.93
2023-04-25T16:45:36.592Z,0.90
2023-04-25T16:48:06.259Z,0.80
2023-04-25T16:50:36.788Z,0.70
2023-04-25T16:53:06.313Z,0.90
2023-04-25T16:55:36.332Z,1.07
2023-04-25T16:58:08.821Z,0.87
2023-04-25T17:00:39.289Z,0.80
2023-04-25T17:03:15.908Z,0.90
2023-04-25T17:05:45.681Z,0.73
2023-04-25T17:08:16.033Z,0.70
2023-04-25T17:10:43.905Z,1.23
2023-04-25T17:13:21.484Z,0.90
2023-04-25T17:16:00.141Z,0.90
2023-04-25T17:18:29.094Z,1.00
2023-04-25T17:20:57.243Z,1.20
2023-04-25T17:23:25.165Z,0.80
2023-04-25T17:25:56.821Z,1.17
2023-04-25T17:28:25.888Z,1.30
2023-04-25T17:30:56.131Z,0.80
2023-04-25T17:33:27.198Z,1.13
2023-04-25T17:35:56.857Z,1.00
2023-04-25T17:38:29.809Z,0.90
2023-04-25T17:40:57.618Z,0.90
2023-04-25T17:43:27.708Z,1.00
2023-04-25T17:45:57.162Z,1.03
2023-04-25T17:48:26.818Z,1.07
2023-04-25T17:50:56.553Z,0.80
2023-04-25T17:53:26.500Z,0.60
2023-04-25T17:55:56.358Z,0.57
2023-04-25T17:58:24.062Z,0.53
2023-04-25T18:00:57.084Z,0.60
2023-04-25T18:03:26.250Z,0.83
2023-04-25T18:05:55.981Z,0.90
2023-04-25T18:08:26.598Z,0.90
2023-04-25T18:10:57.705Z,0.87
2023-04-25T18:13:26.972Z,0.90
2023-04-25T18:15:57.737Z,1.03
2023-04-25T18:18:34.558Z,1.00
2023-04-25T18:21:05.392Z,0.70
2023-04-25T18:23:36.777Z,0.80
2023-04-25T18:26:08.164Z,1.00
2023-04-25T18:28:35.935Z,0.80
2023-04-25T18:31:05.977Z,1.10
2023-04-25T18:33:36.356Z,0.97
2023-04-25T18:36:06.445Z,0.90
2023-04-25T18:38:37.187Z,1.07
2023-04-25T18:41:30.758Z,1.10
2023-04-25T18:44:01.726Z,1.23
2023-04-25T18:46:32.433Z,1.00
2023-04-25T18:49:04.942Z,1.10
2023-04-25T18:51:37.075Z,1.20
2023-04-25T18:54:04.901Z,1.23
2023-04-25T18:56:36.075Z,1.03
2023-04-25T18:59:06.683Z,1.07
2023-04-25T19:01:36.668Z,1.10
2023-04-25T19:04:07.043Z,0.97
2023-04-25T19:06:36.905Z,1.20
2023-04-25T19:09:07.814Z,1.40
2023-04-25T19:11:36.311Z,1.07
2023-04-25T19:14:07.852Z,2.73
2023-04-25T19:16:41.536Z,2.07
2023-04-25T19:19:14.858Z,1.80
2023-04-25T19:21:54.583Z,1.13
2023-04-25T19:24:25.875Z,1.07
2023-04-25T19:27:06.144Z,1.80
2023-04-25T19:29:41.513Z,1.37
2023-04-25T19:32:16.283Z,1.30
2023-04-25T19:34:48.412Z,2.73
2023-04-25T19:37:17.104Z,1.70
2023-04-25T19:39:47.156Z,1.43
2023-04-25T19:42:16.347Z,1.30
2023-04-25T19:44:48.031Z,1.67
2023-04-25T19:47:17.914Z,1.23
2023-04-25T19:49:47.351Z,1.30
2023-04-25T19:52:18.072Z,1.43
2023-04-25T19:54:46.645Z,1.30
2023-04-25T19:57:16.467Z,1.33
2023-04-25T19:59:48.035Z,1.37
2023-04-25T20:02:18.374Z,1.60
2023-04-25T20:04:46.462Z,1.17
2023-04-25T20:07:26.148Z,1.20
2023-04-25T20:09:56.519Z,1.90
2023-04-25T20:12:26.095Z,1.50
2023-04-25T20:14:56.659Z,1.80
2023-04-25T20:17:27.354Z,1.70
2023-04-25T20:19:55.177Z,2.20
2023-04-25T20:22:22.886Z,1.60
2023-04-25T20:24:54.498Z,1.60
2023-04-25T20:27:26.021Z,1.80
2023-04-25T20:30:01.658Z,2.00
2023-04-25T20:32:46.760Z,1.70
2023-04-25T20:35:15.139Z,2.00
2023-04-25T20:37:46.471Z,1.70
2023-04-25T20:40:14.453Z,1.90
2023-04-25T20:42:46.016Z,1.73
2023-04-25T20:45:16.055Z,1.80
2023-04-25T20:47:47.450Z,1.50
2023-04-25T20:50:15.241Z,2.03
2023-04-25T20:52:47.668Z,2.27
2023-04-25T20:55:16.842Z,1.80
2023-04-25T20:57:46.426Z,2.03
2023-04-25T21:00:22.377Z,1.87
2023-04-25T21:02:56.535Z,1.87
2023-04-25T21:05:26.224Z,1.97
2023-04-25T21:07:57.518Z,2.20
2023-04-25T21:10:26.588Z,2.03
2023-04-25T21:12:56.602Z,3.03
2023-04-25T21:15:24.963Z,2.47
2023-04-25T21:17:56.593Z,2.73
2023-04-25T21:20:27.769Z,2.40
2023-04-25T21:22:56.596Z,2.40
2023-04-25T21:25:36.293Z,2.30
2023-04-25T21:28:04.191Z,2.20
2023-04-25T21:30:32.832Z,2.50
2023-04-25T21:33:06.528Z,2.13
2023-04-25T21:35:37.108Z,2.50
2023-04-25T21:38:04.918Z,2.30
2023-04-25T21:40:34.915Z,1.73
2023-04-25T21:43:05.339Z,1.80
2023-04-25T21:46:09.177Z,1.87
2023-04-25T21:48:35.079Z,1.60
2023-04-25T21:51:05.821Z,1.53
2023-04-25T21:53:37.739Z,1.70
2023-04-25T21:56:06.775Z,1.40
2023-04-25T21:58:37.604Z,1.20
2023-04-25T22:01:06.826Z,1.30
2023-04-25T22:03:36.920Z,1.50
2023-04-25T22:06:06.704Z,1.50
2023-04-25T22:08:36.543Z,1.70
2023-04-25T22:11:08.145Z,1.53
2023-04-25T22:13:36.666Z,1.50
2023-04-25T22:16:18.245Z,1.80
2023-04-25T22:18:48.210Z,1.60
2023-04-25T22:21:16.539Z,1.53
2023-04-25T22:23:44.497Z,1.60
2023-04-25T22:26:15.487Z,1.47
2023-04-25T22:28:46.351Z,1.60
2023-04-25T22:31:17.537Z,1.60
2023-04-25T22:33:48.514Z,1.60
2023-04-25T22:36:17.834Z,1.70
2023-04-25T22:38:45.632Z,1.63
2023-04-25T22:41:17.181Z,1.87
2023-04-25T22:43:45.238Z,1.60
2023-04-25T22:46:17.194Z,2.10
2023-04-25T22:48:50.274Z,1.77
2023-04-25T22:51:18.916Z,1.60
2023-04-25T22:53:46.739Z,1.70
2023-04-25T22:56:14.521Z,1.87
2023-04-25T22:58:47.475Z,1.50
2023-04-25T23:01:19.337Z,1.47
2023-04-25T23:03:49.892Z,1.90
2023-04-25T23:06:18.772Z,1.83
2023-04-25T23:08:46.760Z,1.73
2023-04-25T23:11:17.471Z,1.70
2023-04-25T23:13:46.536Z,1.87
2023-04-25T23:16:15.403Z,1.90
2023-04-25T23:18:48.328Z,1.90
2023-04-25T23:21:17.580Z,1.63
2023-04-25T23:23:45.485Z,1.80
2023-04-25T23:26:13.237Z,1.53
2023-04-25T23:28:42.001Z,1.80
2023-04-25T23:31:11.755Z,1.57
2023-04-25T23:33:41.932Z,1.87
2023-04-25T23:36:18.092Z,1.60
2023-04-25T23:38:48.769Z,1.90
2023-04-25T23:41:17.053Z,1.70
2023-04-25T23:43:44.928Z,1.57
2023-04-25T23:46:12.736Z,1.83
2023-04-25T23:48:47.521Z,1.70
2023-04-25T23:51:18.096Z,1.90
2023-04-25T23:53:53.048Z,1.80
2023-04-25T23:56:26.400Z,1.70
2023-04-25T23:58:56.744Z,1.73
